sensor_id;sensor_type;location;lat;lon;timestamp;pressure;altitude;pressure_sealevel;temperature;humidity
39699;BME280;25372;50.582;12.250;2022-09-12T00:07:16;99966.84;;;13.64;100.00
39699;BME280;25372;50.582;12.250;2022-09-12T00:17:37;99973.19;;;13.76;100.00
39699;BME280;25372;50.582;12.250;2022-09-12T00:28:00;99955.31;;;13.50;100.00
39699;BME280;25372;50.582;12.250;2022-09-12T00:38:20;99960.91;;;13.62;100.00
39699;BME280;25372;50.582;12.250;2022-09-12T00:48:45;99958.41;;;13.53;100.00
39699;BME280;25372;50.582;12.250;2022-09-12T00:59:11;99960.41;;;13.45;100.00
39699;BME280;25372;50.582;12.250;2022-09-12T01:09:36;99950.63;;;13.10;100.00
39699;BME280;25372;50.582;12.250;2022-09-12T01:30:58;99946.88;;;12.98;100.00
39699;BME280;25372;50.582;12.250;2022-09-12T01:41:24;99946.94;;;13.11;100.00
39699;BME280;25372;50.582;12.250;2022-09-12T01:51:55;99936.72;;;13.15;100.00
39699;BME280;25372;50.582;12.250;2022-09-12T02:02:21;99936.91;;;13.13;100.00
39699;BME280;25372;50.582;12.250;2022-09-12T02:12:47;99928.66;;;12.95;100.00
39699;BME280;25372;50.582;12.250;2022-09-12T02:23:13;99921.97;;;12.70;100.00
39699;BME280;25372;50.582;12.250;2022-09-12T02:33:44;99924.50;;;12.85;100.00
39699;BME280;25372;50.582;12.250;2022-09-12T02:44:06;99921.22;;;12.83;100.00
39699;BME280;25372;50.582;12.250;2022-09-12T02:54:29;99917.78;;;12.54;100.00
39699;BME280;25372;50.582;12.250;2022-09-12T03:05:13;99919.84;;;12.59;100.00
39699;BME280;25372;50.582;12.250;2022-09-12T03:15:42;99926.94;;;12.80;100.00
39699;BME280;25372;50.582;12.250;2022-09-12T03:26:11;99910.53;;;12.77;100.00
39699;BME280;25372;50.582;12.250;2022-09-12T03:36:36;99921.41;;;12.82;100.00
39699;BME280;25372;50.582;12.250;2022-09-12T03:46:58;99911.84;;;12.87;100.00
39699;BME280;25372;50.582;12.250;2022-09-12T03:57:20;99916.81;;;13.04;100.00
39699;BME280;25372;50.582;12.250;2022-09-12T04:07:40;99931.69;;;12.91;100.00
39699;BME280;25372;50.582;12.250;2022-09-12T04:18:03;99926.00;;;12.95;100.00
39699;BME280;25372;50.582;12.250;2022-09-12T04:28:25;99926.88;;;13.08;100.00
39699;BME280;25372;50.582;12.250;2022-09-12T04:38:49;99914.41;;;13.16;100.00
39699;BME280;25372;50.582;12.250;2022-09-12T04:49:10;99925.16;;;12.94;100.00
39699;BME280;25372;50.582;12.250;2022-09-12T04:59:34;99943.16;;;12.92;100.00
39699;BME280;25372;50.582;12.250;2022-09-12T05:09:55;99943.78;;;12.94;100.00
39699;BME280;25372;50.582;12.250;2022-09-12T05:20:16;99944.03;;;13.06;100.00
39699;BME280;25372;50.582;12.250;2022-09-12T05:30:38;99958.91;;;13.29;100.00
39699;BME280;25372;50.582;12.250;2022-09-12T05:41:04;99947.09;;;13.45;100.00
39699;BME280;25372;50.582;12.250;2022-09-12T05:51:27;99954.31;;;13.64;100.00
39699;BME280;25372;50.582;12.250;2022-09-12T06:01:49;99972.03;;;14.12;100.00
39699;BME280;25372;50.582;12.250;2022-09-12T06:12:10;99972.69;;;14.61;99.58
39699;BME280;25372;50.582;12.250;2022-09-12T06:22:33;99987.63;;;14.95;94.93
39699;BME280;25372;50.582;12.250;2022-09-12T06:32:54;99990.41;;;15.34;94.89
39699;BME280;25372;50.582;12.250;2022-09-12T06:43:17;99984.25;;;15.72;90.93
39699;BME280;25372;50.582;12.250;2022-09-12T06:53:38;99990.84;;;15.83;92.02
39699;BME280;25372;50.582;12.250;2022-09-12T07:04:02;100004.19;;;15.83;90.69
39699;BME280;25372;50.582;12.250;2022-09-12T07:14:23;100006.88;;;15.83;89.93
39699;BME280;25372;50.582;12.250;2022-09-12T07:24:45;100007.47;;;16.17;89.95
39699;BME280;25372;50.582;12.250;2022-09-12T07:35:07;100007.88;;;16.46;87.54
39699;BME280;25372;50.582;12.250;2022-09-12T07:45:29;100006.78;;;16.53;85.31
39699;BME280;25372;50.582;12.250;2022-09-12T07:55:52;99985.25;;;16.67;85.14
39699;BME280;25372;50.582;12.250;2022-09-12T08:06:15;100002.75;;;16.69;81.65
39699;BME280;25372;50.582;12.250;2022-09-12T08:16:38;100012.19;;;16.97;82.45
39699;BME280;25372;50.582;12.250;2022-09-12T08:27:00;100012.69;;;16.37;84.00
39699;BME280;25372;50.582;12.250;2022-09-12T08:37:21;100012.03;;;16.92;82.00
39699;BME280;25372;50.582;12.250;2022-09-12T08:47:44;100019.75;;;17.93;76.69
39699;BME280;25372;50.582;12.250;2022-09-12T08:58:11;100013.25;;;17.52;77.06
39699;BME280;25372;50.582;12.250;2022-09-12T09:08:52;100009.66;;;17.39;78.50
39699;BME280;25372;50.582;12.250;2022-09-12T09:19:20;99997.34;;;18.65;73.26
39699;BME280;25372;50.582;12.250;2022-09-12T09:29:49;99974.44;;;17.85;73.94
39699;BME280;25372;50.582;12.250;2022-09-12T09:40:19;99987.94;;;18.08;73.82
39699;BME280;25372;50.582;12.250;2022-09-12T09:50:47;99979.88;;;18.62;69.90
39699;BME280;25372;50.582;12.250;2022-09-12T10:01:14;99983.41;;;17.78;72.43
39699;BME280;25372;50.582;12.250;2022-09-12T10:11:38;99976.94;;;18.99;64.56
39699;BME280;25372;50.582;12.250;2022-09-12T10:21:59;99943.03;;;18.04;68.81
39699;BME280;25372;50.582;12.250;2022-09-12T10:32:25;99942.44;;;17.59;73.26
39699;BME280;25372;50.582;12.250;2022-09-12T10:42:50;99960.31;;;19.55;66.37
39699;BME280;25372;50.582;12.250;2022-09-12T10:53:19;99943.66;;;18.65;62.76
39699;BME280;25372;50.582;12.250;2022-09-12T11:03:53;99928.03;;;18.26;62.87
39699;BME280;25372;50.582;12.250;2022-09-12T11:14:30;99934.22;;;18.51;61.69
39699;BME280;25372;50.582;12.250;2022-09-12T11:25:09;99935.88;;;17.55;67.64
39699;BME280;25372;50.582;12.250;2022-09-12T11:35:34;99929.44;;;18.64;60.40
39699;BME280;25372;50.582;12.250;2022-09-12T11:45:56;99926.38;;;20.29;54.82
39699;BME280;25372;50.582;12.250;2022-09-12T11:56:22;99917.25;;;20.86;53.52
39699;BME280;25372;50.582;12.250;2022-09-12T12:06:48;99932.97;;;20.21;52.57
39699;BME280;25372;50.582;12.250;2022-09-12T12:17:16;99937.22;;;19.71;56.86
39699;BME280;25372;50.582;12.250;2022-09-12T12:27:48;99925.63;;;19.54;56.51
39699;BME280;25372;50.582;12.250;2022-09-12T12:38:28;99903.28;;;19.24;57.07
39699;BME280;25372;50.582;12.250;2022-09-12T12:49:02;99894.03;;;19.61;53.98
39699;BME280;25372;50.582;12.250;2022-09-12T12:59:27;99897.19;;;19.58;54.89
39699;BME280;25372;50.582;12.250;2022-09-12T13:09:50;99863.75;;;19.82;55.76
39699;BME280;25372;50.582;12.250;2022-09-12T13:20:22;99862.13;;;19.36;57.19
39699;BME280;25372;50.582;12.250;2022-09-12T13:30:46;99859.63;;;19.63;53.46
39699;BME280;25372;50.582;12.250;2022-09-12T13:41:22;99854.13;;;21.04;51.41
39699;BME280;25372;50.582;12.250;2022-09-12T13:51:57;99843.59;;;21.02;51.38
39699;BME280;25372;50.582;12.250;2022-09-12T14:02:22;99839.81;;;21.25;48.67
39699;BME280;25372;50.582;12.250;2022-09-12T14:12:43;99837.53;;;21.39;50.28
39699;BME280;25372;50.582;12.250;2022-09-12T14:23:17;99824.13;;;20.95;53.80
39699;BME280;25372;50.582;12.250;2022-09-12T14:33:46;99818.31;;;20.59;50.71
39699;BME280;25372;50.582;12.250;2022-09-12T14:44:15;99811.84;;;20.82;50.59
39699;BME280;25372;50.582;12.250;2022-09-12T14:54:38;99815.53;;;20.98;53.95
39699;BME280;25372;50.582;12.250;2022-09-12T15:05:17;99803.09;;;20.48;51.03
39699;BME280;25372;50.582;12.250;2022-09-12T15:15:39;99795.28;;;20.07;52.88
39699;BME280;25372;50.582;12.250;2022-09-12T15:26:02;99797.31;;;20.00;55.25
39699;BME280;25372;50.582;12.250;2022-09-12T15:36:24;99790.31;;;19.65;57.08
39699;BME280;25372;50.582;12.250;2022-09-12T15:46:46;99789.41;;;19.25;59.06
39699;BME280;25372;50.582;12.250;2022-09-12T15:57:07;99798.88;;;18.99;57.89
39699;BME280;25372;50.582;12.250;2022-09-12T16:07:29;99793.75;;;18.33;67.35
39699;BME280;25372;50.582;12.250;2022-09-12T16:17:50;99790.97;;;17.92;68.47
39699;BME280;25372;50.582;12.250;2022-09-12T16:28:12;99784.78;;;17.56;71.46
39699;BME280;25372;50.582;12.250;2022-09-12T16:38:39;99774.91;;;17.27;74.78
39699;BME280;25372;50.582;12.250;2022-09-12T16:49:03;99768.25;;;16.87;77.38
39699;BME280;25372;50.582;12.250;2022-09-12T16:59:24;99766.16;;;16.40;83.27
39699;BME280;25372;50.582;12.250;2022-09-12T17:09:46;99758.09;;;16.03;87.27
39699;BME280;25372;50.582;12.250;2022-09-12T17:20:07;99748.53;;;15.70;92.08
39699;BME280;25372;50.582;12.250;2022-09-12T17:30:32;99742.78;;;15.48;92.05
39699;BME280;25372;50.582;12.250;2022-09-12T17:40:53;99742.97;;;15.21;91.90
39699;BME280;25372;50.582;12.250;2022-09-12T17:51:15;99742.09;;;14.95;92.60
39699;BME280;25372;50.582;12.250;2022-09-12T18:01:36;99750.75;;;14.91;93.85
39699;BME280;25372;50.582;12.250;2022-09-12T18:12:17;99756.22;;;14.57;94.07
39699;BME280;25372;50.582;12.250;2022-09-12T18:22:38;99751.38;;;14.34;95.54
39699;BME280;25372;50.582;12.250;2022-09-12T18:33:01;99751.25;;;14.02;97.27
39699;BME280;25372;50.582;12.250;2022-09-12T18:43:21;99739.66;;;13.56;98.52
39699;BME280;25372;50.582;12.250;2022-09-12T18:53:47;99757.47;;;13.36;98.72
39699;BME280;25372;50.582;12.250;2022-09-12T19:04:10;99761.09;;;13.08;99.82
39699;BME280;25372;50.582;12.250;2022-09-12T19:14:33;99744.91;;;12.96;100.00
39699;BME280;25372;50.582;12.250;2022-09-12T19:24:54;99743.38;;;12.67;100.00
39699;BME280;25372;50.582;12.250;2022-09-12T19:35:16;99741.69;;;12.52;100.00
39699;BME280;25372;50.582;12.250;2022-09-12T19:45:45;99730.44;;;12.50;100.00
39699;BME280;25372;50.582;12.250;2022-09-12T19:56:10;99733.19;;;12.22;100.00
39699;BME280;25372;50.582;12.250;2022-09-12T20:06:31;99706.25;;;11.97;100.00
39699;BME280;25372;50.582;12.250;2022-09-12T20:16:53;99724.31;;;12.08;100.00
39699;BME280;25372;50.582;12.250;2022-09-12T20:27:14;99722.09;;;12.18;100.00
39699;BME280;25372;50.582;12.250;2022-09-12T20:37:37;99717.63;;;11.91;100.00
39699;BME280;25372;50.582;12.250;2022-09-12T20:47:59;99703.38;;;11.63;100.00
39699;BME280;25372;50.582;12.250;2022-09-12T20:58:22;99709.84;;;11.54;100.00
39699;BME280;25372;50.582;12.250;2022-09-12T21:08:49;99712.44;;;11.47;100.00
39699;BME280;25372;50.582;12.250;2022-09-12T21:19:11;99696.38;;;11.27;100.00
39699;BME280;25372;50.582;12.250;2022-09-12T21:29:32;99694.31;;;11.23;100.00
39699;BME280;25372;50.582;12.250;2022-09-12T21:39:54;99692.09;;;11.05;100.00
39699;BME280;25372;50.582;12.250;2022-09-12T21:50:15;99683.72;;;11.01;100.00
39699;BME280;25372;50.582;12.250;2022-09-12T22:00:38;99670.31;;;10.88;100.00
39699;BME280;25372;50.582;12.250;2022-09-12T22:11:02;99662.72;;;10.85;100.00
39699;BME280;25372;50.582;12.250;2022-09-12T22:21:24;99647.78;;;10.77;100.00
39699;BME280;25372;50.582;12.250;2022-09-12T22:31:44;99655.59;;;10.63;100.00
39699;BME280;25372;50.582;12.250;2022-09-12T22:42:06;99649.84;;;10.60;100.00
39699;BME280;25372;50.582;12.250;2022-09-12T22:52:28;99612.25;;;10.50;100.00
39699;BME280;25372;50.582;12.250;2022-09-12T23:02:50;99606.94;;;10.71;100.00
39699;BME280;25372;50.582;12.250;2022-09-12T23:13:12;99570.19;;;10.25;100.00
39699;BME280;25372;50.582;12.250;2022-09-12T23:23:34;99596.28;;;10.28;100.00
39699;BME280;25372;50.582;12.250;2022-09-12T23:33:56;99592.31;;;10.17;100.00
39699;BME280;25372;50.582;12.250;2022-09-12T23:44:19;99581.25;;;10.28;100.00
39699;BME280;25372;50.582;12.250;2022-09-12T23:54:40;99565.75;;;10.10;100.00
